sensor_id;sensor_type;location;lat;lon;timestamp;P1;durP1;ratioP1;P2;durP2;ratioP2
3918;SDS011;1974;48.670;8.994;2022-08-03T00:00:55;1.40;;;1.33;;
3918;SDS011;1974;48.670;8.994;2022-08-03T00:03:22;1.10;;;1.00;;
3918;SDS011;1974;48.670;8.994;2022-08-03T00:05:49;1.60;;;1.23;;
3918;SDS011;1974;48.670;8.994;2022-08-03T00:08:17;2.00;;;1.03;;
3918;SDS011;1974;48.670;8.994;2022-08-03T00:10:44;1.30;;;1.20;;
3918;SDS011;1974;48.670;8.994;2022-08-03T00:13:11;1.43;;;1.20;;
3918;SDS011;1974;48.670;8.994;2022-08-03T00:15:38;2.50;;;1.43;;
3918;SDS011;1974;48.670;8.994;2022-08-03T00:18:05;2.50;;;1.50;;
3918;SDS011;1974;48.670;8.994;2022-08-03T00:20:32;3.47;;;1.83;;
3918;SDS011;1974;48.670;8.994;2022-08-03T00:22:59;2.67;;;2.47;;
3918;SDS011;1974;48.670;8.994;2022-08-03T00:25:27;2.03;;;1.20;;
3918;SDS011;1974;48.670;8.994;2022-08-03T00:27:54;1.87;;;1.00;;
3918;SDS011;1974;48.670;8.994;2022-08-03T00:30:21;1.07;;;0.70;;
3918;SDS011;1974;48.670;8.994;2022-08-03T00:32:47;2.53;;;1.03;;
3918;SDS011;1974;48.670;8.994;2022-08-03T00:35:14;1.90;;;1.47;;
3918;SDS011;1974;48.670;8.994;2022-08-03T00:37:41;4.50;;;2.07;;
3918;SDS011;1974;48.670;8.994;2022-08-03T00:40:09;3.93;;;2.80;;
3918;SDS011;1974;48.670;8.994;2022-08-03T00:42:46;4.10;;;3.03;;
3918;SDS011;1974;48.670;8.994;2022-08-03T00:45:14;3.53;;;1.67;;
3918;SDS011;1974;48.670;8.994;2022-08-03T00:47:41;2.47;;;2.23;;
3918;SDS011;1974;48.670;8.994;2022-08-03T00:50:08;1.43;;;1.03;;
3918;SDS011;1974;48.670;8.994;2022-08-03T00:52:35;1.20;;;0.90;;
3918;SDS011;1974;48.670;8.994;2022-08-03T00:55:02;1.87;;;0.83;;
3918;SDS011;1974;48.670;8.994;2022-08-03T00:57:29;1.73;;;1.43;;
3918;SDS011;1974;48.670;8.994;2022-08-03T00:59:59;0.90;;;0.90;;
3918;SDS011;1974;48.670;8.994;2022-08-03T01:02:26;8.83;;;1.17;;
3918;SDS011;1974;48.670;8.994;2022-08-03T01:04:54;0.97;;;0.97;;
3918;SDS011;1974;48.670;8.994;2022-08-03T01:07:22;0.80;;;0.80;;
3918;SDS011;1974;48.670;8.994;2022-08-03T01:09:56;1.20;;;0.80;;
3918;SDS011;1974;48.670;8.994;2022-08-03T01:12:31;0.87;;;0.83;;
3918;SDS011;1974;48.670;8.994;2022-08-03T01:15:06;1.57;;;1.47;;
3918;SDS011;1974;48.670;8.994;2022-08-03T01:17:39;9.50;;;6.10;;
3918;SDS011;1974;48.670;8.994;2022-08-03T01:20:11;8.83;;;5.00;;
3918;SDS011;1974;48.670;8.994;2022-08-03T01:22:44;5.43;;;4.07;;
3918;SDS011;1974;48.670;8.994;2022-08-03T01:25:24;4.03;;;2.87;;
3918;SDS011;1974;48.670;8.994;2022-08-03T01:28:01;1.80;;;1.50;;
3918;SDS011;1974;48.670;8.994;2022-08-03T01:30:46;2.53;;;1.60;;
3918;SDS011;1974;48.670;8.994;2022-08-03T01:33:15;2.50;;;1.63;;
3918;SDS011;1974;48.670;8.994;2022-08-03T01:35:46;1.17;;;1.07;;
3918;SDS011;1974;48.670;8.994;2022-08-03T01:38:17;2.40;;;1.70;;
3918;SDS011;1974;48.670;8.994;2022-08-03T01:40:49;1.93;;;1.50;;
3918;SDS011;1974;48.670;8.994;2022-08-03T01:43:19;1.77;;;1.07;;
3918;SDS011;1974;48.670;8.994;2022-08-03T01:45:53;3.73;;;1.83;;
3918;SDS011;1974;48.670;8.994;2022-08-03T01:48:21;2.03;;;1.67;;
3918;SDS011;1974;48.670;8.994;2022-08-03T01:50:49;1.47;;;1.10;;
3918;SDS011;1974;48.670;8.994;2022-08-03T01:53:17;1.60;;;1.23;;
3918;SDS011;1974;48.670;8.994;2022-08-03T01:55:46;3.97;;;1.00;;
3918;SDS011;1974;48.670;8.994;2022-08-03T01:58:17;1.47;;;1.13;;
3918;SDS011;1974;48.670;8.994;2022-08-03T02:00:45;1.00;;;0.90;;
3918;SDS011;1974;48.670;8.994;2022-08-03T02:03:14;0.80;;;0.80;;
3918;SDS011;1974;48.670;8.994;2022-08-03T02:05:42;1.17;;;0.80;;
3918;SDS011;1974;48.670;8.994;2022-08-03T02:08:12;2.03;;;1.40;;
3918;SDS011;1974;48.670;8.994;2022-08-03T02:10:41;1.37;;;0.87;;
3918;SDS011;1974;48.670;8.994;2022-08-03T02:13:10;0.77;;;0.77;;
3918;SDS011;1974;48.670;8.994;2022-08-03T02:15:39;1.70;;;0.93;;
3918;SDS011;1974;48.670;8.994;2022-08-03T02:18:07;0.80;;;0.80;;
3918;SDS011;1974;48.670;8.994;2022-08-03T02:20:36;1.07;;;0.80;;
3918;SDS011;1974;48.670;8.994;2022-08-03T02:23:04;2.17;;;1.20;;
3918;SDS011;1974;48.670;8.994;2022-08-03T02:25:31;1.17;;;1.17;;
3918;SDS011;1974;48.670;8.994;2022-08-03T02:28:00;1.83;;;1.60;;
3918;SDS011;1974;48.670;8.994;2022-08-03T02:30:34;1.80;;;1.70;;
3918;SDS011;1974;48.670;8.994;2022-08-03T02:33:02;2.67;;;1.90;;
3918;SDS011;1974;48.670;8.994;2022-08-03T02:35:31;1.63;;;1.53;;
3918;SDS011;1974;48.670;8.994;2022-08-03T02:38:02;1.63;;;1.53;;
3918;SDS011;1974;48.670;8.994;2022-08-03T02:40:32;2.57;;;1.37;;
3918;SDS011;1974;48.670;8.994;2022-08-03T02:43:01;3.00;;;1.13;;
3918;SDS011;1974;48.670;8.994;2022-08-03T02:45:31;2.03;;;1.83;;
3918;SDS011;1974;48.670;8.994;2022-08-03T02:48:02;0.80;;;0.80;;
3918;SDS011;1974;48.670;8.994;2022-08-03T02:50:30;1.10;;;0.80;;
3918;SDS011;1974;48.670;8.994;2022-08-03T02:52:59;0.90;;;0.80;;
3918;SDS011;1974;48.670;8.994;2022-08-03T02:55:29;0.90;;;0.90;;
3918;SDS011;1974;48.670;8.994;2022-08-03T02:58:00;0.90;;;0.90;;
3918;SDS011;1974;48.670;8.994;2022-08-03T03:00:27;1.40;;;1.30;;
3918;SDS011;1974;48.670;8.994;2022-08-03T03:02:56;1.37;;;0.80;;
3918;SDS011;1974;48.670;8.994;2022-08-03T03:05:24;1.17;;;1.07;;
3918;SDS011;1974;48.670;8.994;2022-08-03T03:07:51;3.20;;;1.80;;
3918;SDS011;1974;48.670;8.994;2022-08-03T03:10:19;1.70;;;1.07;;
3918;SDS011;1974;48.670;8.994;2022-08-03T03:12:47;1.70;;;1.60;;
3918;SDS011;1974;48.670;8.994;2022-08-03T03:15:16;1.83;;;1.23;;
3918;SDS011;1974;48.670;8.994;2022-08-03T03:17:43;1.40;;;1.30;;
3918;SDS011;1974;48.670;8.994;2022-08-03T03:20:10;2.30;;;1.60;;
3918;SDS011;1974;48.670;8.994;2022-08-03T03:22:37;1.07;;;0.80;;
3918;SDS011;1974;48.670;8.994;2022-08-03T03:25:06;1.43;;;1.30;;
3918;SDS011;1974;48.670;8.994;2022-08-03T03:27:35;0.73;;;0.73;;
3918;SDS011;1974;48.670;8.994;2022-08-03T03:30:02;1.53;;;1.27;;
3918;SDS011;1974;48.670;8.994;2022-08-03T03:32:30;1.47;;;0.90;;
3918;SDS011;1974;48.670;8.994;2022-08-03T03:34:56;1.30;;;1.00;;
3918;SDS011;1974;48.670;8.994;2022-08-03T03:37:24;1.57;;;1.00;;
3918;SDS011;1974;48.670;8.994;2022-08-03T03:39:52;1.70;;;1.00;;
3918;SDS011;1974;48.670;8.994;2022-08-03T03:42:19;2.73;;;0.90;;
3918;SDS011;1974;48.670;8.994;2022-08-03T03:44:48;1.57;;;0.73;;
3918;SDS011;1974;48.670;8.994;2022-08-03T03:47:14;0.50;;;0.50;;
3918;SDS011;1974;48.670;8.994;2022-08-03T03:49:41;1.70;;;1.30;;
3918;SDS011;1974;48.670;8.994;2022-08-03T03:52:09;0.93;;;0.93;;
3918;SDS011;1974;48.670;8.994;2022-08-03T03:54:39;1.53;;;0.87;;
3918;SDS011;1974;48.670;8.994;2022-08-03T03:57:07;1.37;;;1.07;;
3918;SDS011;1974;48.670;8.994;2022-08-03T03:59:36;0.83;;;0.77;;
3918;SDS011;1974;48.670;8.994;2022-08-03T04:02:04;0.90;;;0.70;;
3918;SDS011;1974;48.670;8.994;2022-08-03T04:04:31;1.53;;;0.90;;
3918;SDS011;1974;48.670;8.994;2022-08-03T04:07:32;0.90;;;0.90;;
3918;SDS011;1974;48.670;8.994;2022-08-03T04:10:24;1.07;;;0.97;;
3918;SDS011;1974;48.670;8.994;2022-08-03T04:13:14;2.50;;;1.10;;
3918;SDS011;1974;48.670;8.994;2022-08-03T04:15:43;0.70;;;0.70;;
3918;SDS011;1974;48.670;8.994;2022-08-03T04:18:13;1.00;;;0.90;;
3918;SDS011;1974;48.670;8.994;2022-08-03T04:20:42;1.43;;;1.20;;
3918;SDS011;1974;48.670;8.994;2022-08-03T04:23:12;0.93;;;0.87;;
3918;SDS011;1974;48.670;8.994;2022-08-03T04:25:41;1.43;;;1.10;;
3918;SDS011;1974;48.670;8.994;2022-08-03T04:28:09;3.23;;;0.93;;
3918;SDS011;1974;48.670;8.994;2022-08-03T04:30:36;1.07;;;0.80;;
3918;SDS011;1974;48.670;8.994;2022-08-03T04:33:11;1.67;;;1.57;;
3918;SDS011;1974;48.670;8.994;2022-08-03T04:35:41;1.23;;;0.80;;
3918;SDS011;1974;48.670;8.994;2022-08-03T04:38:12;0.90;;;0.70;;
3918;SDS011;1974;48.670;8.994;2022-08-03T04:40:41;0.60;;;0.60;;
3918;SDS011;1974;48.670;8.994;2022-08-03T04:43:09;0.73;;;0.73;;
3918;SDS011;1974;48.670;8.994;2022-08-03T04:45:37;1.70;;;0.97;;
3918;SDS011;1974;48.670;8.994;2022-08-03T04:48:06;0.90;;;0.90;;
3918;SDS011;1974;48.670;8.994;2022-08-03T04:50:34;1.50;;;1.40;;
3918;SDS011;1974;48.670;8.994;2022-08-03T04:53:01;0.60;;;0.60;;
3918;SDS011;1974;48.670;8.994;2022-08-03T04:55:28;1.10;;;0.80;;
3918;SDS011;1974;48.670;8.994;2022-08-03T04:57:56;1.53;;;0.67;;
3918;SDS011;1974;48.670;8.994;2022-08-03T05:00:24;1.50;;;1.33;;
3918;SDS011;1974;48.670;8.994;2022-08-03T05:02:51;1.37;;;1.37;;
3918;SDS011;1974;48.670;8.994;2022-08-03T05:05:19;2.57;;;1.37;;
3918;SDS011;1974;48.670;8.994;2022-08-03T05:07:47;0.70;;;0.70;;
3918;SDS011;1974;48.670;8.994;2022-08-03T05:10:14;1.57;;;1.27;;
3918;SDS011;1974;48.670;8.994;2022-08-03T05:12:41;1.87;;;1.33;;
3918;SDS011;1974;48.670;8.994;2022-08-03T05:15:09;2.80;;;1.53;;
3918;SDS011;1974;48.670;8.994;2022-08-03T05:17:36;3.73;;;1.47;;
3918;SDS011;1974;48.670;8.994;2022-08-03T05:20:03;3.73;;;1.50;;
3918;SDS011;1974;48.670;8.994;2022-08-03T05:22:31;1.27;;;1.13;;
3918;SDS011;1974;48.670;8.994;2022-08-03T05:24:59;1.50;;;1.00;;
3918;SDS011;1974;48.670;8.994;2022-08-03T05:27:26;1.00;;;1.00;;
3918;SDS011;1974;48.670;8.994;2022-08-03T05:29:52;1.47;;;0.87;;
3918;SDS011;1974;48.670;8.994;2022-08-03T05:32:19;1.70;;;1.37;;
3918;SDS011;1974;48.670;8.994;2022-08-03T05:34:46;1.50;;;1.00;;
3918;SDS011;1974;48.670;8.994;2022-08-03T05:37:13;1.60;;;0.97;;
3918;SDS011;1974;48.670;8.994;2022-08-03T05:39:40;2.60;;;1.20;;
3918;SDS011;1974;48.670;8.994;2022-08-03T05:42:08;1.00;;;1.00;;
3918;SDS011;1974;48.670;8.994;2022-08-03T05:44:35;1.30;;;1.20;;
3918;SDS011;1974;48.670;8.994;2022-08-03T05:47:03;1.20;;;1.20;;
3918;SDS011;1974;48.670;8.994;2022-08-03T05:49:30;1.00;;;0.90;;
3918;SDS011;1974;48.670;8.994;2022-08-03T05:51:56;2.20;;;1.20;;
3918;SDS011;1974;48.670;8.994;2022-08-03T05:54:23;2.13;;;1.13;;
3918;SDS011;1974;48.670;8.994;2022-08-03T05:56:50;1.57;;;0.93;;
3918;SDS011;1974;48.670;8.994;2022-08-03T05:59:18;1.43;;;1.30;;
3918;SDS011;1974;48.670;8.994;2022-08-03T06:01:45;1.47;;;1.37;;
3918;SDS011;1974;48.670;8.994;2022-08-03T06:04:12;1.83;;;1.10;;
3918;SDS011;1974;48.670;8.994;2022-08-03T06:06:39;1.80;;;0.87;;
3918;SDS011;1974;48.670;8.994;2022-08-03T06:09:06;1.27;;;1.00;;
3918;SDS011;1974;48.670;8.994;2022-08-03T06:11:34;2.77;;;1.47;;
3918;SDS011;1974;48.670;8.994;2022-08-03T06:14:01;0.80;;;0.77;;
3918;SDS011;1974;48.670;8.994;2022-08-03T06:16:29;1.03;;;1.03;;
3918;SDS011;1974;48.670;8.994;2022-08-03T06:18:56;1.30;;;0.80;;
3918;SDS011;1974;48.670;8.994;2022-08-03T06:21:23;1.60;;;1.50;;
3918;SDS011;1974;48.670;8.994;2022-08-03T06:23:49;0.80;;;0.80;;
3918;SDS011;1974;48.670;8.994;2022-08-03T06:26:17;1.33;;;0.90;;
3918;SDS011;1974;48.670;8.994;2022-08-03T06:28:44;0.83;;;0.83;;
3918;SDS011;1974;48.670;8.994;2022-08-03T06:31:11;0.93;;;0.63;;
3918;SDS011;1974;48.670;8.994;2022-08-03T06:33:39;1.27;;;0.90;;
3918;SDS011;1974;48.670;8.994;2022-08-03T06:36:05;2.20;;;0.90;;
3918;SDS011;1974;48.670;8.994;2022-08-03T06:38:32;3.70;;;0.83;;
3918;SDS011;1974;48.670;8.994;2022-08-03T06:40:59;1.40;;;0.83;;
3918;SDS011;1974;48.670;8.994;2022-08-03T06:43:26;0.87;;;0.87;;
3918;SDS011;1974;48.670;8.994;2022-08-03T06:45:52;1.50;;;0.80;;
3918;SDS011;1974;48.670;8.994;2022-08-03T06:48:19;1.33;;;0.90;;
3918;SDS011;1974;48.670;8.994;2022-08-03T06:50:48;1.60;;;0.90;;
3918;SDS011;1974;48.670;8.994;2022-08-03T06:53:14;0.63;;;0.63;;
3918;SDS011;1974;48.670;8.994;2022-08-03T06:55:41;1.17;;;0.80;;
3918;SDS011;1974;48.670;8.994;2022-08-03T06:58:08;4.80;;;1.17;;
3918;SDS011;1974;48.670;8.994;2022-08-03T07:00:35;0.93;;;0.83;;
3918;SDS011;1974;48.670;8.994;2022-08-03T07:03:01;1.50;;;1.20;;
3918;SDS011;1974;48.670;8.994;2022-08-03T07:05:28;0.80;;;0.80;;
3918;SDS011;1974;48.670;8.994;2022-08-03T07:07:58;2.00;;;1.17;;
3918;SDS011;1974;48.670;8.994;2022-08-03T07:10:27;1.08;;;0.95;;
3918;SDS011;1974;48.670;8.994;2022-08-03T07:12:54;0.77;;;0.73;;
3918;SDS011;1974;48.670;8.994;2022-08-03T07:15:21;0.82;;;0.63;;
3918;SDS011;1974;48.670;8.994;2022-08-03T07:17:48;0.80;;;0.80;;
3918;SDS011;1974;48.670;8.994;2022-08-03T07:20:15;0.70;;;0.70;;
3918;SDS011;1974;48.670;8.994;2022-08-03T07:22:42;0.90;;;0.88;;
3918;SDS011;1974;48.670;8.994;2022-08-03T07:25:10;1.15;;;0.60;;
3918;SDS011;1974;48.670;8.994;2022-08-03T07:27:37;0.60;;;0.60;;
3918;SDS011;1974;48.670;8.994;2022-08-03T07:30:05;0.80;;;0.80;;
3918;SDS011;1974;48.670;8.994;2022-08-03T07:32:33;1.25;;;0.68;;
3918;SDS011;1974;48.670;8.994;2022-08-03T07:35:00;0.65;;;0.65;;
3918;SDS011;1974;48.670;8.994;2022-08-03T07:37:27;1.00;;;0.90;;
3918;SDS011;1974;48.670;8.994;2022-08-03T07:39:54;0.77;;;0.52;;
3918;SDS011;1974;48.670;8.994;2022-08-03T07:42:23;1.05;;;0.95;;
3918;SDS011;1974;48.670;8.994;2022-08-03T07:44:50;0.60;;;0.60;;
3918;SDS011;1974;48.670;8.994;2022-08-03T07:47:17;1.45;;;1.00;;
3918;SDS011;1974;48.670;8.994;2022-08-03T07:49:44;1.60;;;0.85;;
3918;SDS011;1974;48.670;8.994;2022-08-03T07:52:11;0.80;;;0.70;;
3918;SDS011;1974;48.670;8.994;2022-08-03T07:54:55;0.60;;;0.60;;
3918;SDS011;1974;48.670;8.994;2022-08-03T07:57:23;0.77;;;0.70;;
3918;SDS011;1974;48.670;8.994;2022-08-03T07:59:50;0.60;;;0.60;;
3918;SDS011;1974;48.670;8.994;2022-08-03T08:02:16;0.52;;;0.52;;
3918;SDS011;1974;48.670;8.994;2022-08-03T08:04:43;0.65;;;0.65;;
3918;SDS011;1974;48.670;8.994;2022-08-03T08:07:10;0.55;;;0.55;;
3918;SDS011;1974;48.670;8.994;2022-08-03T08:09:37;1.20;;;0.70;;
3918;SDS011;1974;48.670;8.994;2022-08-03T08:12:04;1.25;;;0.70;;
3918;SDS011;1974;48.670;8.994;2022-08-03T08:14:33;0.82;;;0.50;;
3918;SDS011;1974;48.670;8.994;2022-08-03T08:17:00;1.00;;;0.70;;
3918;SDS011;1974;48.670;8.994;2022-08-03T08:19:27;0.50;;;0.50;;
3918;SDS011;1974;48.670;8.994;2022-08-03T08:21:53;0.60;;;0.50;;
3918;SDS011;1974;48.670;8.994;2022-08-03T08:24:20;0.80;;;0.50;;
3918;SDS011;1974;48.670;8.994;2022-08-03T08:26:47;0.60;;;0.60;;
3918;SDS011;1974;48.670;8.994;2022-08-03T08:29:14;0.82;;;0.82;;
3918;SDS011;1974;48.670;8.994;2022-08-03T08:31:42;0.50;;;0.50;;
3918;SDS011;1974;48.670;8.994;2022-08-03T08:34:09;0.68;;;0.68;;
3918;SDS011;1974;48.670;8.994;2022-08-03T08:36:36;1.42;;;0.50;;
3918;SDS011;1974;48.670;8.994;2022-08-03T08:39:03;0.50;;;0.50;;
3918;SDS011;1974;48.670;8.994;2022-08-03T08:41:30;0.50;;;0.50;;
3918;SDS011;1974;48.670;8.994;2022-08-03T08:43:59;0.40;;;0.40;;
3918;SDS011;1974;48.670;8.994;2022-08-03T08:46:26;0.50;;;0.50;;
3918;SDS011;1974;48.670;8.994;2022-08-03T08:48:59;0.60;;;0.60;;
3918;SDS011;1974;48.670;8.994;2022-08-03T08:51:27;1.08;;;0.50;;
3918;SDS011;1974;48.670;8.994;2022-08-03T08:53:57;0.47;;;0.47;;
3918;SDS011;1974;48.670;8.994;2022-08-03T08:56:27;0.57;;;0.57;;
3918;SDS011;1974;48.670;8.994;2022-08-03T08:58:57;0.60;;;0.50;;
3918;SDS011;1974;48.670;8.994;2022-08-03T09:01:27;0.50;;;0.50;;
3918;SDS011;1974;48.670;8.994;2022-08-03T09:03:54;0.50;;;0.50;;
3918;SDS011;1974;48.670;8.994;2022-08-03T09:06:22;0.50;;;0.50;;
3918;SDS011;1974;48.670;8.994;2022-08-03T09:08:49;0.60;;;0.60;;
3918;SDS011;1974;48.670;8.994;2022-08-03T09:11:19;0.60;;;0.60;;
3918;SDS011;1974;48.670;8.994;2022-08-03T09:13:46;0.60;;;0.52;;
3918;SDS011;1974;48.670;8.994;2022-08-03T09:16:14;0.50;;;0.50;;
3918;SDS011;1974;48.670;8.994;2022-08-03T09:18:42;0.57;;;0.57;;
3918;SDS011;1974;48.670;8.994;2022-08-03T09:21:14;0.60;;;0.60;;
3918;SDS011;1974;48.670;8.994;2022-08-03T09:23:44;0.50;;;0.50;;
3918;SDS011;1974;48.670;8.994;2022-08-03T09:26:15;0.60;;;0.60;;
3918;SDS011;1974;48.670;8.994;2022-08-03T09:28:46;0.98;;;0.60;;
3918;SDS011;1974;48.670;8.994;2022-08-03T09:31:19;1.25;;;0.77;;
3918;SDS011;1974;48.670;8.994;2022-08-03T09:33:55;0.70;;;0.70;;
3918;SDS011;1974;48.670;8.994;2022-08-03T09:36:34;0.60;;;0.60;;
3918;SDS011;1974;48.670;8.994;2022-08-03T09:39:04;0.70;;;0.50;;
3918;SDS011;1974;48.670;8.994;2022-08-03T09:41:34;0.63;;;0.63;;
3918;SDS011;1974;48.670;8.994;2022-08-03T09:44:01;0.68;;;0.68;;
3918;SDS011;1974;48.670;8.994;2022-08-03T09:46:29;0.63;;;0.60;;
3918;SDS011;1974;48.670;8.994;2022-08-03T09:49:10;0.60;;;0.60;;
3918;SDS011;1974;48.670;8.994;2022-08-03T09:51:38;0.65;;;0.60;;
3918;SDS011;1974;48.670;8.994;2022-08-03T09:54:06;0.93;;;0.60;;
3918;SDS011;1974;48.670;8.994;2022-08-03T09:56:36;0.70;;;0.70;;
3918;SDS011;1974;48.670;8.994;2022-08-03T09:59:05;3.33;;;0.70;;
3918;SDS011;1974;48.670;8.994;2022-08-03T10:01:32;0.73;;;0.70;;
3918;SDS011;1974;48.670;8.994;2022-08-03T10:03:59;0.60;;;0.50;;
3918;SDS011;1974;48.670;8.994;2022-08-03T10:06:26;0.60;;;0.60;;
3918;SDS011;1974;48.670;8.994;2022-08-03T10:09:03;0.60;;;0.50;;
3918;SDS011;1974;48.670;8.994;2022-08-03T10:11:33;0.60;;;0.60;;
3918;SDS011;1974;48.670;8.994;2022-08-03T10:14:01;0.77;;;0.77;;
3918;SDS011;1974;48.670;8.994;2022-08-03T10:16:30;0.50;;;0.50;;
3918;SDS011;1974;48.670;8.994;2022-08-03T10:18:59;0.57;;;0.57;;
3918;SDS011;1974;48.670;8.994;2022-08-03T10:21:26;0.60;;;0.60;;
3918;SDS011;1974;48.670;8.994;2022-08-03T10:23:57;1.50;;;0.50;;
3918;SDS011;1974;48.670;8.994;2022-08-03T10:26:26;0.60;;;0.60;;
3918;SDS011;1974;48.670;8.994;2022-08-03T10:28:55;0.93;;;0.70;;
3918;SDS011;1974;48.670;8.994;2022-08-03T10:31:27;0.80;;;0.63;;
3918;SDS011;1974;48.670;8.994;2022-08-03T10:34:00;0.70;;;0.70;;
3918;SDS011;1974;48.670;8.994;2022-08-03T10:36:30;1.10;;;1.05;;
3918;SDS011;1974;48.670;8.994;2022-08-03T10:38:58;0.60;;;0.60;;
3918;SDS011;1974;48.670;8.994;2022-08-03T10:41:35;0.60;;;0.60;;
3918;SDS011;1974;48.670;8.994;2022-08-03T10:44:07;1.25;;;0.82;;
3918;SDS011;1974;48.670;8.994;2022-08-03T10:46:38;0.60;;;0.60;;
3918;SDS011;1974;48.670;8.994;2022-08-03T10:49:05;0.55;;;0.55;;
3918;SDS011;1974;48.670;8.994;2022-08-03T10:51:32;0.60;;;0.60;;
3918;SDS011;1974;48.670;8.994;2022-08-03T10:54:00;0.65;;;0.65;;
3918;SDS011;1974;48.670;8.994;2022-08-03T10:56:38;0.50;;;0.50;;
3918;SDS011;1974;48.670;8.994;2022-08-03T11:05:26;1.58;;;0.70;;
3918;SDS011;1974;48.670;8.994;2022-08-03T11:10:42;1.95;;;0.73;;
3918;SDS011;1974;48.670;8.994;2022-08-03T11:13:11;0.70;;;0.70;;
3918;SDS011;1974;48.670;8.994;2022-08-03T11:15:41;1.08;;;0.70;;
3918;SDS011;1974;48.670;8.994;2022-08-03T11:18:09;0.70;;;0.70;;
3918;SDS011;1974;48.670;8.994;2022-08-03T11:20:46;0.55;;;0.55;;
3918;SDS011;1974;48.670;8.994;2022-08-03T11:23:15;0.70;;;0.70;;
3918;SDS011;1974;48.670;8.994;2022-08-03T11:28:47;0.60;;;0.60;;
3918;SDS011;1974;48.670;8.994;2022-08-03T11:34:09;1.40;;;0.93;;
3918;SDS011;1974;48.670;8.994;2022-08-03T11:39:37;0.70;;;0.70;;
3918;SDS011;1974;48.670;8.994;2022-08-03T11:45:07;0.70;;;0.70;;
3918;SDS011;1974;48.670;8.994;2022-08-03T11:47:35;0.60;;;0.60;;
3918;SDS011;1974;48.670;8.994;2022-08-03T11:50:04;0.95;;;0.95;;
3918;SDS011;1974;48.670;8.994;2022-08-03T11:52:36;0.68;;;0.68;;
3918;SDS011;1974;48.670;8.994;2022-08-03T11:55:08;0.60;;;0.60;;
3918;SDS011;1974;48.670;8.994;2022-08-03T11:57:36;0.80;;;0.63;;
3918;SDS011;1974;48.670;8.994;2022-08-03T12:02:55;0.93;;;0.77;;
3918;SDS011;1974;48.670;8.994;2022-08-03T12:05:32;0.50;;;0.50;;
3918;SDS011;1974;48.670;8.994;2022-08-03T12:08:04;1.10;;;0.65;;
3918;SDS011;1974;48.670;8.994;2022-08-03T12:10:31;0.63;;;0.50;;
3918;SDS011;1974;48.670;8.994;2022-08-03T12:12:59;0.60;;;0.60;;
3918;SDS011;1974;48.670;8.994;2022-08-03T12:15:31;0.73;;;0.60;;
3918;SDS011;1974;48.670;8.994;2022-08-03T12:17:59;0.63;;;0.63;;
3918;SDS011;1974;48.670;8.994;2022-08-03T12:20:27;0.60;;;0.60;;
3918;SDS011;1974;48.670;8.994;2022-08-03T12:23:00;0.93;;;0.70;;
3918;SDS011;1974;48.670;8.994;2022-08-03T12:25:28;0.85;;;0.60;;
3918;SDS011;1974;48.670;8.994;2022-08-03T12:28:05;0.70;;;0.70;;
3918;SDS011;1974;48.670;8.994;2022-08-03T12:30:38;0.80;;;0.50;;
3918;SDS011;1974;48.670;8.994;2022-08-03T12:33:12;0.88;;;0.88;;
3918;SDS011;1974;48.670;8.994;2022-08-03T12:35:40;0.60;;;0.60;;
3918;SDS011;1974;48.670;8.994;2022-08-03T12:38:06;0.60;;;0.60;;
3918;SDS011;1974;48.670;8.994;2022-08-03T12:40:33;0.68;;;0.68;;
3918;SDS011;1974;48.670;8.994;2022-08-03T12:43:00;0.90;;;0.80;;
3918;SDS011;1974;48.670;8.994;2022-08-03T12:45:35;0.60;;;0.60;;
3918;SDS011;1974;48.670;8.994;2022-08-03T12:48:06;0.60;;;0.60;;
3918;SDS011;1974;48.670;8.994;2022-08-03T12:50:34;3.05;;;0.73;;
3918;SDS011;1974;48.670;8.994;2022-08-03T12:53:03;2.60;;;0.65;;
3918;SDS011;1974;48.670;8.994;2022-08-03T12:55:31;1.17;;;1.00;;
3918;SDS011;1974;48.670;8.994;2022-08-03T12:57:59;0.77;;;0.77;;
3918;SDS011;1974;48.670;8.994;2022-08-03T13:00:26;0.70;;;0.70;;
3918;SDS011;1974;48.670;8.994;2022-08-03T13:02:57;0.63;;;0.60;;
3918;SDS011;1974;48.670;8.994;2022-08-03T13:05:27;0.55;;;0.43;;
3918;SDS011;1974;48.670;8.994;2022-08-03T13:07:54;0.52;;;0.52;;
3918;SDS011;1974;48.670;8.994;2022-08-03T13:10:28;0.70;;;0.55;;
3918;SDS011;1974;48.670;8.994;2022-08-03T13:12:55;0.57;;;0.57;;
3918;SDS011;1974;48.670;8.994;2022-08-03T13:15:24;0.50;;;0.50;;
3918;SDS011;1974;48.670;8.994;2022-08-03T13:17:52;0.70;;;0.60;;
3918;SDS011;1974;48.670;8.994;2022-08-03T13:20:19;1.45;;;0.70;;
3918;SDS011;1974;48.670;8.994;2022-08-03T13:22:47;2.20;;;0.80;;
3918;SDS011;1974;48.670;8.994;2022-08-03T13:25:14;1.70;;;0.60;;
3918;SDS011;1974;48.670;8.994;2022-08-03T13:27:41;0.55;;;0.45;;
3918;SDS011;1974;48.670;8.994;2022-08-03T13:30:09;0.57;;;0.57;;
3918;SDS011;1974;48.670;8.994;2022-08-03T13:32:36;0.80;;;0.80;;
3918;SDS011;1974;48.670;8.994;2022-08-03T13:35:03;0.70;;;0.70;;
3918;SDS011;1974;48.670;8.994;2022-08-03T13:37:31;1.08;;;0.50;;
3918;SDS011;1974;48.670;8.994;2022-08-03T13:39:59;1.85;;;0.95;;
3918;SDS011;1974;48.670;8.994;2022-08-03T13:42:29;0.50;;;0.40;;
3918;SDS011;1974;48.670;8.994;2022-08-03T13:44:56;1.65;;;0.70;;
3918;SDS011;1974;48.670;8.994;2022-08-03T13:47:23;1.00;;;0.70;;
3918;SDS011;1974;48.670;8.994;2022-08-03T13:49:50;0.60;;;0.60;;
3918;SDS011;1974;48.670;8.994;2022-08-03T13:52:17;0.50;;;0.50;;
3918;SDS011;1974;48.670;8.994;2022-08-03T13:54:44;0.80;;;0.60;;
3918;SDS011;1974;48.670;8.994;2022-08-03T13:57:12;0.50;;;0.50;;
3918;SDS011;1974;48.670;8.994;2022-08-03T13:59:39;0.63;;;0.63;;
3918;SDS011;1974;48.670;8.994;2022-08-03T14:02:06;1.40;;;0.60;;
3918;SDS011;1974;48.670;8.994;2022-08-03T14:04:33;0.50;;;0.50;;
3918;SDS011;1974;48.670;8.994;2022-08-03T14:07:00;0.50;;;0.50;;
3918;SDS011;1974;48.670;8.994;2022-08-03T14:09:26;0.60;;;0.50;;
3918;SDS011;1974;48.670;8.994;2022-08-03T14:11:53;3.95;;;0.80;;
3918;SDS011;1974;48.670;8.994;2022-08-03T14:14:21;0.57;;;0.57;;
3918;SDS011;1974;48.670;8.994;2022-08-03T14:16:48;0.47;;;0.47;;
3918;SDS011;1974;48.670;8.994;2022-08-03T14:19:15;0.60;;;0.60;;
3918;SDS011;1974;48.670;8.994;2022-08-03T14:21:41;0.70;;;0.60;;
3918;SDS011;1974;48.670;8.994;2022-08-03T14:24:08;0.88;;;0.70;;
3918;SDS011;1974;48.670;8.994;2022-08-03T14:26:35;0.50;;;0.50;;
3918;SDS011;1974;48.670;8.994;2022-08-03T14:29:02;0.70;;;0.70;;
3918;SDS011;1974;48.670;8.994;2022-08-03T14:31:31;0.50;;;0.50;;
3918;SDS011;1974;48.670;8.994;2022-08-03T14:33:58;1.83;;;0.70;;
3918;SDS011;1974;48.670;8.994;2022-08-03T14:36:24;0.57;;;0.57;;
3918;SDS011;1974;48.670;8.994;2022-08-03T14:38:51;0.65;;;0.60;;
3918;SDS011;1974;48.670;8.994;2022-08-03T14:41:18;0.68;;;0.68;;
3918;SDS011;1974;48.670;8.994;2022-08-03T14:43:45;0.65;;;0.60;;
3918;SDS011;1974;48.670;8.994;2022-08-03T14:46:11;0.50;;;0.50;;
3918;SDS011;1974;48.670;8.994;2022-08-03T14:48:40;0.65;;;0.50;;
3918;SDS011;1974;48.670;8.994;2022-08-03T14:51:06;0.80;;;0.68;;
3918;SDS011;1974;48.670;8.994;2022-08-03T14:53:33;0.70;;;0.70;;
3918;SDS011;1974;48.670;8.994;2022-08-03T14:56:00;1.75;;;0.60;;
3918;SDS011;1974;48.670;8.994;2022-08-03T14:58:26;0.70;;;0.70;;
3918;SDS011;1974;48.670;8.994;2022-08-03T15:00:54;0.95;;;0.60;;
3918;SDS011;1974;48.670;8.994;2022-08-03T15:03:22;0.50;;;0.50;;
3918;SDS011;1974;48.670;8.994;2022-08-03T15:05:51;0.75;;;0.75;;
3918;SDS011;1974;48.670;8.994;2022-08-03T15:08:19;0.70;;;0.70;;
3918;SDS011;1974;48.670;8.994;2022-08-03T15:10:46;0.50;;;0.50;;
3918;SDS011;1974;48.670;8.994;2022-08-03T15:13:13;0.70;;;0.70;;
3918;SDS011;1974;48.670;8.994;2022-08-03T15:15:40;0.60;;;0.50;;
3918;SDS011;1974;48.670;8.994;2022-08-03T15:18:07;0.70;;;0.70;;
3918;SDS011;1974;48.670;8.994;2022-08-03T15:20:34;0.50;;;0.50;;
3918;SDS011;1974;48.670;8.994;2022-08-03T15:23:02;0.60;;;0.60;;
3918;SDS011;1974;48.670;8.994;2022-08-03T15:25:29;1.00;;;0.70;;
3918;SDS011;1974;48.670;8.994;2022-08-03T15:27:55;0.95;;;0.70;;
3918;SDS011;1974;48.670;8.994;2022-08-03T15:30:22;0.60;;;0.60;;
3918;SDS011;1974;48.670;8.994;2022-08-03T15:32:49;0.93;;;0.82;;
3918;SDS011;1974;48.670;8.994;2022-08-03T15:35:15;0.60;;;0.60;;
3918;SDS011;1974;48.670;8.994;2022-08-03T15:37:42;0.80;;;0.80;;
3918;SDS011;1974;48.670;8.994;2022-08-03T15:40:11;0.60;;;0.60;;
3918;SDS011;1974;48.670;8.994;2022-08-03T15:42:38;1.33;;;0.70;;
3918;SDS011;1974;48.670;8.994;2022-08-03T15:45:05;3.55;;;0.70;;
3918;SDS011;1974;48.670;8.994;2022-08-03T15:47:32;0.60;;;0.60;;